sensor_id;sensor_type;location;lat;lon;timestamp;pressure;altitude;pressure_sealevel;temperature;humidity
76122;BME280;64853;53.200;6.080;2023-04-30T00:04:25;102495.16;;;18.65;42.66
76122;BME280;64853;53.200;6.080;2023-04-30T00:09:16;102491.81;;;18.63;42.96
76122;BME280;64853;53.200;6.080;2023-04-30T00:14:08;102495.66;;;18.62;42.92
76122;BME280;64853;53.200;6.080;2023-04-30T00:19:01;102498.94;;;18.59;42.81
76122;BME280;64853;53.200;6.080;2023-04-30T00:23:53;102492.84;;;18.57;42.86
76122;BME280;64853;53.200;6.080;2023-04-30T00:28:44;102499.69;;;18.54;42.79
76122;BME280;64853;53.200;6.080;2023-04-30T00:33:35;102505.44;;;18.53;42.63
76122;BME280;64853;53.200;6.080;2023-04-30T00:38:28;102507.63;;;18.51;42.88
76122;BME280;64853;53.200;6.080;2023-04-30T00:43:20;102512.56;;;18.49;42.72
76122;BME280;64853;53.200;6.080;2023-04-30T00:48:11;102500.09;;;18.46;42.62
76122;BME280;64853;53.200;6.080;2023-04-30T00:53:03;102493.06;;;18.38;42.80
76122;BME280;64853;53.200;6.080;2023-04-30T00:57:57;102505.28;;;18.43;42.76
76122;BME280;64853;53.200;6.080;2023-04-30T01:02:48;102503.59;;;18.42;42.62
76122;BME280;64853;53.200;6.080;2023-04-30T01:07:40;102505.53;;;18.41;42.67
76122;BME280;64853;53.200;6.080;2023-04-30T01:12:37;102495.25;;;18.36;42.74
76122;BME280;64853;53.200;6.080;2023-04-30T01:17:35;102499.09;;;18.35;42.51
76122;BME280;64853;53.200;6.080;2023-04-30T01:22:35;102489.06;;;18.29;42.68
76122;BME280;64853;53.200;6.080;2023-04-30T01:32:59;102470.88;;;18.16;42.39
76122;BME280;64853;53.200;6.080;2023-04-30T01:37:58;102492.31;;;18.26;42.60
76122;BME280;64853;53.200;6.080;2023-04-30T01:42:57;102499.75;;;18.26;42.74
76122;BME280;64853;53.200;6.080;2023-04-30T01:47:55;102489.44;;;18.21;42.72
76122;BME280;64853;53.200;6.080;2023-04-30T01:52:52;102492.81;;;18.23;42.57
76122;BME280;64853;53.200;6.080;2023-04-30T01:57:50;102485.03;;;18.20;42.54
76122;BME280;64853;53.200;6.080;2023-04-30T02:02:43;102487.69;;;18.15;42.49
76122;BME280;64853;53.200;6.080;2023-04-30T02:07:38;102496.31;;;18.18;42.55
76122;BME280;64853;53.200;6.080;2023-04-30T02:12:31;102494.88;;;18.16;42.42
76122;BME280;64853;53.200;6.080;2023-04-30T02:17:23;102491.56;;;18.14;42.59
76122;BME280;64853;53.200;6.080;2023-04-30T02:22:14;102497.31;;;18.12;42.63
76122;BME280;64853;53.200;6.080;2023-04-30T02:27:05;102488.47;;;18.10;42.57
76122;BME280;64853;53.200;6.080;2023-04-30T02:31:58;102492.28;;;18.09;42.52
76122;BME280;64853;53.200;6.080;2023-04-30T02:36:50;102496.13;;;18.08;42.51
76122;BME280;64853;53.200;6.080;2023-04-30T02:41:41;102499.38;;;18.05;42.65
76122;BME280;64853;53.200;6.080;2023-04-30T02:46:32;102495.78;;;18.05;42.48
76122;BME280;64853;53.200;6.080;2023-04-30T02:51:25;102505.13;;;18.03;42.43
76122;BME280;64853;53.200;6.080;2023-04-30T02:56:17;102510.66;;;18.03;42.46
76122;BME280;64853;53.200;6.080;2023-04-30T03:01:08;102501.81;;;18.01;42.49
76122;BME280;64853;53.200;6.080;2023-04-30T03:06:00;102494.59;;;18.00;42.24
76122;BME280;64853;53.200;6.080;2023-04-30T03:10:53;102495.06;;;17.97;42.43
76122;BME280;64853;53.200;6.080;2023-04-30T03:15:44;102498.91;;;17.96;42.47
76122;BME280;64853;53.200;6.080;2023-04-30T03:20:36;102501.06;;;17.94;42.40
76122;BME280;64853;53.200;6.080;2023-04-30T03:25:27;102500.47;;;17.92;42.50
76122;BME280;64853;53.200;6.080;2023-04-30T03:30:20;102492.22;;;17.92;42.39
76122;BME280;64853;53.200;6.080;2023-04-30T03:35:11;102505.41;;;17.90;42.50
76122;BME280;64853;53.200;6.080;2023-04-30T03:40:04;102508.19;;;17.90;42.40
76122;BME280;64853;53.200;6.080;2023-04-30T03:44:55;102506.50;;;17.89;42.30
76122;BME280;64853;53.200;6.080;2023-04-30T03:49:48;102505.91;;;17.87;42.48
76122;BME280;64853;53.200;6.080;2023-04-30T03:54:44;102508.09;;;17.85;42.30
76122;BME280;64853;53.200;6.080;2023-04-30T03:59:35;102515.50;;;17.84;42.35
76122;BME280;64853;53.200;6.080;2023-04-30T04:04:27;102514.09;;;17.82;42.27
76122;BME280;64853;53.200;6.080;2023-04-30T04:09:20;102520.09;;;17.79;42.49
76122;BME280;64853;53.200;6.080;2023-04-30T04:14:11;102519.13;;;17.85;42.50
76122;BME280;64853;53.200;6.080;2023-04-30T04:19:03;102517.13;;;18.09;42.19
76122;BME280;64853;53.200;6.080;2023-04-30T04:23:55;102529.44;;;18.35;41.87
76122;BME280;64853;53.200;6.080;2023-04-30T04:28:48;102524.28;;;18.56;41.48
76122;BME280;64853;53.200;6.080;2023-04-30T04:33:40;102524.53;;;18.71;41.30
76122;BME280;64853;53.200;6.080;2023-04-30T04:38:31;102529.66;;;18.80;41.54
76122;BME280;64853;53.200;6.080;2023-04-30T04:43:23;102536.50;;;18.94;40.70
76122;BME280;64853;53.200;6.080;2023-04-30T04:48:15;102536.09;;;19.02;41.20
76122;BME280;64853;53.200;6.080;2023-04-30T04:53:07;102539.00;;;19.13;40.98
76122;BME280;64853;53.200;6.080;2023-04-30T04:57:58;102532.78;;;19.22;40.81
76122;BME280;64853;53.200;6.080;2023-04-30T05:02:50;102539.22;;;19.28;40.84
76122;BME280;64853;53.200;6.080;2023-04-30T05:07:43;102553.38;;;19.32;40.87
76122;BME280;64853;53.200;6.080;2023-04-30T05:12:35;102556.53;;;19.40;40.77
76122;BME280;64853;53.200;6.080;2023-04-30T05:17:26;102559.38;;;19.45;40.58
76122;BME280;64853;53.200;6.080;2023-04-30T05:22:18;102566.03;;;19.50;40.23
76122;BME280;64853;53.200;6.080;2023-04-30T05:27:10;102571.06;;;19.53;40.27
76122;BME280;64853;53.200;6.080;2023-04-30T05:32:02;102563.88;;;19.52;40.48
76122;BME280;64853;53.200;6.080;2023-04-30T05:36:53;102565.22;;;19.49;40.43
76122;BME280;64853;53.200;6.080;2023-04-30T05:41:45;102572.19;;;19.52;40.18
76122;BME280;64853;53.200;6.080;2023-04-30T05:46:38;102567.22;;;19.54;40.15
76122;BME280;64853;53.200;6.080;2023-04-30T05:51:29;102563.38;;;19.55;40.39
76122;BME280;64853;53.200;6.080;2023-04-30T05:56:21;102578.28;;;19.54;40.40
76122;BME280;64853;53.200;6.080;2023-04-30T06:01:13;102578.53;;;19.52;40.58
76122;BME280;64853;53.200;6.080;2023-04-30T06:06:06;102558.00;;;19.48;40.35
76122;BME280;64853;53.200;6.080;2023-04-30T06:10:58;102571.56;;;19.50;40.70
76122;BME280;64853;53.200;6.080;2023-04-30T06:15:49;102562.19;;;19.51;40.25
76122;BME280;64853;53.200;6.080;2023-04-30T06:20:41;102574.03;;;19.46;40.17
76122;BME280;64853;53.200;6.080;2023-04-30T06:25:34;102567.59;;;19.40;40.48
76122;BME280;64853;53.200;6.080;2023-04-30T06:30:25;102581.44;;;19.40;40.22
76122;BME280;64853;53.200;6.080;2023-04-30T06:35:17;102578.66;;;19.40;40.11
76122;BME280;64853;53.200;6.080;2023-04-30T06:40:08;102588.53;;;19.36;40.25
76122;BME280;64853;53.200;6.080;2023-04-30T06:45:02;102591.56;;;19.35;40.38
76122;BME280;64853;53.200;6.080;2023-04-30T06:49:55;102594.91;;;19.37;40.15
76122;BME280;64853;53.200;6.080;2023-04-30T06:54:47;102596.00;;;19.36;39.80
76122;BME280;64853;53.200;6.080;2023-04-30T06:59:38;102594.00;;;19.31;40.03
76122;BME280;64853;53.200;6.080;2023-04-30T07:04:31;102594.75;;;19.26;40.29
76122;BME280;64853;53.200;6.080;2023-04-30T07:09:22;102593.31;;;19.24;40.36
76122;BME280;64853;53.200;6.080;2023-04-30T07:14:14;102596.16;;;19.29;40.01
76122;BME280;64853;53.200;6.080;2023-04-30T07:19:05;102584.03;;;19.30;40.45
76122;BME280;64853;53.200;6.080;2023-04-30T07:23:58;102588.97;;;19.28;40.13
76122;BME280;64853;53.200;6.080;2023-04-30T07:28:49;102584.47;;;19.22;40.58
76122;BME280;64853;53.200;6.080;2023-04-30T07:33:41;102586.72;;;19.25;40.53
76122;BME280;64853;53.200;6.080;2023-04-30T07:38:32;102577.59;;;19.24;40.42
76122;BME280;64853;53.200;6.080;2023-04-30T07:43:25;102586.22;;;19.28;40.53
76122;BME280;64853;53.200;6.080;2023-04-30T07:48:16;102583.19;;;19.29;40.53
76122;BME280;64853;53.200;6.080;2023-04-30T07:53:08;102575.22;;;19.33;41.31
76122;BME280;64853;53.200;6.080;2023-04-30T07:58:00;102580.25;;;19.36;41.05
76122;BME280;64853;53.200;6.080;2023-04-30T08:02:54;102590.13;;;19.32;40.91
76122;BME280;64853;53.200;6.080;2023-04-30T08:07:45;102588.09;;;19.44;41.08
76122;BME280;64853;53.200;6.080;2023-04-30T08:12:37;102592.66;;;19.56;41.28
76122;BME280;64853;53.200;6.080;2023-04-30T08:17:28;102595.38;;;19.68;42.43
76122;BME280;64853;53.200;6.080;2023-04-30T08:22:21;102587.44;;;19.76;40.75
76122;BME280;64853;53.200;6.080;2023-04-30T08:27:13;102598.50;;;19.76;40.61
76122;BME280;64853;53.200;6.080;2023-04-30T08:32:04;102596.84;;;19.75;40.49
76122;BME280;64853;53.200;6.080;2023-04-30T08:36:55;102609.00;;;19.74;40.74
76122;BME280;64853;53.200;6.080;2023-04-30T08:41:53;102610.59;;;19.70;40.80
76122;BME280;64853;53.200;6.080;2023-04-30T08:46:45;102610.59;;;19.70;40.79
76122;BME280;64853;53.200;6.080;2023-04-30T08:51:37;102605.91;;;19.71;40.42
76122;BME280;64853;53.200;6.080;2023-04-30T08:56:29;102602.28;;;19.70;40.82
76122;BME280;64853;53.200;6.080;2023-04-30T09:01:24;102605.06;;;19.70;40.72
76122;BME280;64853;53.200;6.080;2023-04-30T09:06:16;102617.50;;;19.68;40.76
76122;BME280;64853;53.200;6.080;2023-04-30T09:11:19;102608.59;;;19.65;40.98
76122;BME280;64853;53.200;6.080;2023-04-30T09:16:12;102613.28;;;19.65;40.60
76122;BME280;64853;53.200;6.080;2023-04-30T09:21:05;102606.69;;;19.66;41.60
76122;BME280;64853;53.200;6.080;2023-04-30T09:25:58;102610.53;;;19.65;42.15
76122;BME280;64853;53.200;6.080;2023-04-30T09:30:50;102605.56;;;19.67;42.08
76122;BME280;64853;53.200;6.080;2023-04-30T09:35:42;102597.28;;;19.67;42.12
76122;BME280;64853;53.200;6.080;2023-04-30T09:40:37;102595.69;;;19.71;41.96
76122;BME280;64853;53.200;6.080;2023-04-30T09:45:39;102598.19;;;19.73;41.73
76122;BME280;64853;53.200;6.080;2023-04-30T09:50:36;102593.50;;;19.73;41.85
76122;BME280;64853;53.200;6.080;2023-04-30T09:55:28;102589.13;;;19.77;41.74
76122;BME280;64853;53.200;6.080;2023-04-30T10:00:21;102585.59;;;19.82;41.26
76122;BME280;64853;53.200;6.080;2023-04-30T10:05:13;102573.28;;;19.95;40.71
76122;BME280;64853;53.200;6.080;2023-04-30T10:10:07;102552.50;;;19.92;41.68
76122;BME280;64853;53.200;6.080;2023-04-30T10:15:05;102556.63;;;20.12;40.78
76122;BME280;64853;53.200;6.080;2023-04-30T10:20:05;102542.53;;;20.13;42.36
76122;BME280;64853;53.200;6.080;2023-04-30T10:24:58;102535.97;;;20.25;41.23
76122;BME280;64853;53.200;6.080;2023-04-30T10:29:52;102538.28;;;20.33;42.19
76122;BME280;64853;53.200;6.080;2023-04-30T10:34:49;102541.78;;;20.50;40.77
76122;BME280;64853;53.200;6.080;2023-04-30T10:39:45;102535.19;;;20.57;40.71
76122;BME280;64853;53.200;6.080;2023-04-30T10:44:37;102528.28;;;20.59;41.70
76122;BME280;64853;53.200;6.080;2023-04-30T10:49:29;102528.59;;;20.63;41.73
76122;BME280;64853;53.200;6.080;2023-04-30T10:54:24;102516.47;;;20.69;43.57
76122;BME280;64853;53.200;6.080;2023-04-30T10:59:17;102513.16;;;20.72;41.88
76122;BME280;64853;53.200;6.080;2023-04-30T11:04:10;102503.72;;;20.68;41.68
76122;BME280;64853;53.200;6.080;2023-04-30T11:09:02;102499.00;;;20.68;40.54
76122;BME280;64853;53.200;6.080;2023-04-30T11:13:59;102492.63;;;20.68;41.47
76122;BME280;64853;53.200;6.080;2023-04-30T11:18:52;102489.34;;;20.71;41.68
76122;BME280;64853;53.200;6.080;2023-04-30T11:23:48;102484.88;;;20.70;41.90
76122;BME280;64853;53.200;6.080;2023-04-30T11:28:49;102478.22;;;20.66;41.75
76122;BME280;64853;53.200;6.080;2023-04-30T11:33:41;102479.31;;;20.65;42.21
76122;BME280;64853;53.200;6.080;2023-04-30T11:38:35;102476.25;;;20.61;40.87
76122;BME280;64853;53.200;6.080;2023-04-30T11:43:28;102472.06;;;20.59;40.82
76122;BME280;64853;53.200;6.080;2023-04-30T11:48:20;102466.22;;;20.55;40.56
76122;BME280;64853;53.200;6.080;2023-04-30T11:53:12;102462.38;;;20.56;41.43
76122;BME280;64853;53.200;6.080;2023-04-30T11:58:08;102440.44;;;20.49;41.93
76122;BME280;64853;53.200;6.080;2023-04-30T12:02:59;102447.66;;;20.55;41.45
76122;BME280;64853;53.200;6.080;2023-04-30T12:07:54;102441.88;;;20.57;40.86
76122;BME280;64853;53.200;6.080;2023-04-30T12:12:46;102433.28;;;20.53;40.89
76122;BME280;64853;53.200;6.080;2023-04-30T12:17:39;102429.97;;;20.57;40.16
76122;BME280;64853;53.200;6.080;2023-04-30T12:22:31;102430.94;;;20.40;41.26
76122;BME280;64853;53.200;6.080;2023-04-30T12:27:23;102433.44;;;20.42;40.72
76122;BME280;64853;53.200;6.080;2023-04-30T12:32:14;102425.41;;;20.40;40.84
76122;BME280;64853;53.200;6.080;2023-04-30T12:37:09;102400.91;;;20.27;41.22
76122;BME280;64853;53.200;6.080;2023-04-30T12:42:02;102415.91;;;20.31;41.17
76122;BME280;64853;53.200;6.080;2023-04-30T12:46:55;102420.44;;;20.37;41.05
76122;BME280;64853;53.200;6.080;2023-04-30T12:51:47;102422.06;;;20.38;41.30
76122;BME280;64853;53.200;6.080;2023-04-30T12:56:55;102412.13;;;20.37;41.64
76122;BME280;64853;53.200;6.080;2023-04-30T13:01:46;102405.47;;;20.38;41.18
76122;BME280;64853;53.200;6.080;2023-04-30T13:06:37;102402.97;;;20.36;41.76
76122;BME280;64853;53.200;6.080;2023-04-30T13:11:29;102400.47;;;20.40;41.75
76122;BME280;64853;53.200;6.080;2023-04-30T13:16:22;102397.97;;;20.38;41.74
76122;BME280;64853;53.200;6.080;2023-04-30T13:21:14;102390.00;;;20.42;41.38
76122;BME280;64853;53.200;6.080;2023-04-30T13:26:05;102385.03;;;20.44;41.85
76122;BME280;64853;53.200;6.080;2023-04-30T13:30:57;102375.88;;;20.44;41.66
76122;BME280;64853;53.200;6.080;2023-04-30T13:35:49;102374.22;;;20.43;41.65
76122;BME280;64853;53.200;6.080;2023-04-30T13:40:41;102364.03;;;20.48;41.66
76122;BME280;64853;53.200;6.080;2023-04-30T13:45:32;102349.63;;;20.51;41.65
76122;BME280;64853;53.200;6.080;2023-04-30T13:50:24;102348.50;;;20.47;41.74
76122;BME280;64853;53.200;6.080;2023-04-30T13:55:17;102344.06;;;20.46;41.85
76122;BME280;64853;53.200;6.080;2023-04-30T14:00:09;102349.31;;;20.48;41.93
76122;BME280;64853;53.200;6.080;2023-04-30T14:05:01;102331.91;;;20.52;42.28
76122;BME280;64853;53.200;6.080;2023-04-30T14:09:54;102327.25;;;20.58;41.78
76122;BME280;64853;53.200;6.080;2023-04-30T14:14:46;102328.94;;;20.64;41.81
76122;BME280;64853;53.200;6.080;2023-04-30T14:19:38;102317.88;;;20.69;42.19
76122;BME280;64853;53.200;6.080;2023-04-30T14:24:29;102320.94;;;20.73;41.62
76122;BME280;64853;53.200;6.080;2023-04-30T14:29:21;102313.75;;;20.77;41.64
76122;BME280;64853;53.200;6.080;2023-04-30T14:34:14;102305.47;;;20.82;41.81
76122;BME280;64853;53.200;6.080;2023-04-30T14:39:05;102297.69;;;20.84;41.63
76122;BME280;64853;53.200;6.080;2023-04-30T14:43:58;102288.56;;;20.89;41.55
76122;BME280;64853;53.200;6.080;2023-04-30T14:48:49;102288.88;;;20.92;41.68
76122;BME280;64853;53.200;6.080;2023-04-30T14:53:42;102284.44;;;20.97;41.61
76122;BME280;64853;53.200;6.080;2023-04-30T14:58:33;102285.00;;;20.99;41.72
76122;BME280;64853;53.200;6.080;2023-04-30T15:03:25;102278.63;;;21.03;41.58
76122;BME280;64853;53.200;6.080;2023-04-30T15:08:16;102271.72;;;21.06;41.34
76122;BME280;64853;53.200;6.080;2023-04-30T15:13:09;102266.19;;;21.06;41.84
76122;BME280;64853;53.200;6.080;2023-04-30T15:18:02;102260.69;;;21.11;41.53
76122;BME280;64853;53.200;6.080;2023-04-30T15:22:54;102263.19;;;21.13;41.62
76122;BME280;64853;53.200;6.080;2023-04-30T15:27:46;102260.69;;;21.16;41.69
76122;BME280;64853;53.200;6.080;2023-04-30T15:32:39;102250.44;;;21.22;41.89
76122;BME280;64853;53.200;6.080;2023-04-30T15:37:30;102242.97;;;21.27;42.16
76122;BME280;64853;53.200;6.080;2023-04-30T15:42:23;102242.16;;;21.32;41.81
76122;BME280;64853;53.200;6.080;2023-04-30T15:47:15;102239.66;;;21.36;41.69
76122;BME280;64853;53.200;6.080;2023-04-30T15:52:07;102239.38;;;21.37;42.02
76122;BME280;64853;53.200;6.080;2023-04-30T15:56:59;102237.97;;;21.40;42.12
76122;BME280;64853;53.200;6.080;2023-04-30T16:01:52;102241.88;;;21.44;41.54
76122;BME280;64853;53.200;6.080;2023-04-30T16:06:43;102233.81;;;21.48;41.74
76122;BME280;64853;53.200;6.080;2023-04-30T16:11:37;102230.75;;;21.49;41.78
76122;BME280;64853;53.200;6.080;2023-04-30T16:16:29;102221.34;;;21.50;41.81
76122;BME280;64853;53.200;6.080;2023-04-30T16:21:20;102217.75;;;21.50;41.60
76122;BME280;64853;53.200;6.080;2023-04-30T16:26:12;102221.34;;;21.50;41.62
76122;BME280;64853;53.200;6.080;2023-04-30T16:31:05;102218.03;;;21.48;41.68
76122;BME280;64853;53.200;6.080;2023-04-30T16:35:57;102216.91;;;21.44;41.56
76122;BME280;64853;53.200;6.080;2023-04-30T16:40:48;102212.47;;;21.43;41.46
76122;BME280;64853;53.200;6.080;2023-04-30T16:45:40;102218.28;;;21.41;41.32
76122;BME280;64853;53.200;6.080;2023-04-30T16:50:33;102209.69;;;21.38;41.67
76122;BME280;64853;53.200;6.080;2023-04-30T16:55:24;102205.25;;;21.37;41.42
76122;BME280;64853;53.200;6.080;2023-04-30T17:00:16;102205.25;;;21.37;41.34
76122;BME280;64853;53.200;6.080;2023-04-30T17:05:08;102201.13;;;21.34;41.37
76122;BME280;64853;53.200;6.080;2023-04-30T17:10:02;102194.72;;;21.34;41.62
76122;BME280;64853;53.200;6.080;2023-04-30T17:14:53;102193.06;;;21.38;41.37
76122;BME280;64853;53.200;6.080;2023-04-30T17:19:45;102181.97;;;21.38;41.43
76122;BME280;64853;53.200;6.080;2023-04-30T17:24:36;102174.22;;;21.35;41.49
76122;BME280;64853;53.200;6.080;2023-04-30T17:29:29;102173.94;;;21.16;42.27
76122;BME280;64853;53.200;6.080;2023-04-30T17:34:21;102173.94;;;21.21;41.82
76122;BME280;64853;53.200;6.080;2023-04-30T17:39:12;102174.50;;;21.23;42.28
76122;BME280;64853;53.200;6.080;2023-04-30T17:44:03;102175.88;;;21.25;41.96
76122;BME280;64853;53.200;6.080;2023-04-30T17:48:56;102177.53;;;21.26;42.12
76122;BME280;64853;53.200;6.080;2023-04-30T17:53:50;102164.78;;;21.25;41.83
76122;BME280;64853;53.200;6.080;2023-04-30T17:58:42;102170.31;;;21.25;42.41
76122;BME280;64853;53.200;6.080;2023-04-30T18:03:35;102163.16;;;21.24;42.50
76122;BME280;64853;53.200;6.080;2023-04-30T18:08:27;102172.00;;;21.21;42.04
76122;BME280;64853;53.200;6.080;2023-04-30T18:13:19;102170.34;;;21.15;42.56
76122;BME280;64853;53.200;6.080;2023-04-30T18:18:10;102166.44;;;21.11;42.66
76122;BME280;64853;53.200;6.080;2023-04-30T18:23:02;102156.44;;;21.05;42.44
76122;BME280;64853;53.200;6.080;2023-04-30T18:27:55;102165.31;;;21.02;43.06
76122;BME280;64853;53.200;6.080;2023-04-30T18:32:47;102158.13;;;21.01;43.10
76122;BME280;64853;53.200;6.080;2023-04-30T18:37:38;102158.66;;;20.98;43.53
76122;BME280;64853;53.200;6.080;2023-04-30T18:42:29;102159.22;;;20.95;43.59
76122;BME280;64853;53.200;6.080;2023-04-30T18:47:23;102155.31;;;20.90;43.35
76122;BME280;64853;53.200;6.080;2023-04-30T18:52:15;102154.50;;;20.85;43.74
76122;BME280;64853;53.200;6.080;2023-04-30T18:57:06;102153.38;;;20.81;43.56
76122;BME280;64853;53.200;6.080;2023-04-30T19:02:01;102149.47;;;20.77;43.59
76122;BME280;64853;53.200;6.080;2023-04-30T19:06:54;102151.44;;;20.71;43.93
76122;BME280;64853;53.200;6.080;2023-04-30T19:11:45;102151.97;;;20.68;44.06
76122;BME280;64853;53.200;6.080;2023-04-30T19:16:38;102150.56;;;20.65;43.76
76122;BME280;64853;53.200;6.080;2023-04-30T19:21:29;102155.00;;;20.61;44.16
76122;BME280;64853;53.200;6.080;2023-04-30T19:26:23;102153.06;;;20.57;44.08
76122;BME280;64853;53.200;6.080;2023-04-30T19:31:14;102164.69;;;20.53;44.11
76122;BME280;64853;53.200;6.080;2023-04-30T19:36:06;102163.53;;;20.49;43.91
76122;BME280;64853;53.200;6.080;2023-04-30T19:40:59;102165.22;;;20.45;44.30
76122;BME280;64853;53.200;6.080;2023-04-30T19:45:53;102164.63;;;20.43;43.78
76122;BME280;64853;53.200;6.080;2023-04-30T19:50:44;102159.38;;;20.42;43.83
76122;BME280;64853;53.200;6.080;2023-04-30T19:55:37;102159.63;;;20.40;43.92
76122;BME280;64853;53.200;6.080;2023-04-30T20:00:28;102159.09;;;20.38;43.71
76122;BME280;64853;53.200;6.080;2023-04-30T20:05:21;102153.50;;;20.33;44.05
76122;BME280;64853;53.200;6.080;2023-04-30T20:10:13;102149.34;;;20.30;44.30
76122;BME280;64853;53.200;6.080;2023-04-30T20:15:05;102148.78;;;20.28;44.27
76122;BME280;64853;53.200;6.080;2023-04-30T20:19:57;102151.28;;;20.25;44.17
76122;BME280;64853;53.200;6.080;2023-04-30T20:24:50;102143.25;;;20.23;43.90
76122;BME280;64853;53.200;6.080;2023-04-30T20:29:42;102136.56;;;20.19;44.38
76122;BME280;64853;53.200;6.080;2023-04-30T20:34:33;102141.56;;;20.17;44.16
76122;BME280;64853;53.200;6.080;2023-04-30T20:39:25;102136.28;;;20.15;44.46
76122;BME280;64853;53.200;6.080;2023-04-30T20:44:18;102134.63;;;20.14;44.00
76122;BME280;64853;53.200;6.080;2023-04-30T20:49:09;102128.78;;;20.11;44.18
76122;BME280;64853;53.200;6.080;2023-04-30T20:54:03;102123.81;;;20.08;43.75
76122;BME280;64853;53.200;6.080;2023-04-30T20:58:55;102124.06;;;20.06;43.64
76122;BME280;64853;53.200;6.080;2023-04-30T21:03:48;102115.50;;;20.02;44.17
76122;BME280;64853;53.200;6.080;2023-04-30T21:08:39;102119.06;;;19.98;43.84
76122;BME280;64853;53.200;6.080;2023-04-30T21:13:31;102115.75;;;19.96;43.63
76122;BME280;64853;53.200;6.080;2023-04-30T21:18:22;102109.06;;;19.92;44.07
76122;BME280;64853;53.200;6.080;2023-04-30T21:23:17;102112.13;;;19.90;43.88
76122;BME280;64853;53.200;6.080;2023-04-30T21:28:08;102117.34;;;19.87;43.47
76122;BME280;64853;53.200;6.080;2023-04-30T21:33:00;102110.41;;;19.84;43.90
76122;BME280;64853;53.200;6.080;2023-04-30T21:37:52;102104.34;;;19.82;43.87
76122;BME280;64853;53.200;6.080;2023-04-30T21:42:45;102102.94;;;19.79;43.62
76122;BME280;64853;53.200;6.080;2023-04-30T21:47:36;102087.72;;;19.77;43.58
76122;BME280;64853;53.200;6.080;2023-04-30T21:52:28;102086.31;;;19.74;43.94
76122;BME280;64853;53.200;6.080;2023-04-30T21:57:20;102080.22;;;19.72;43.43
76122;BME280;64853;53.200;6.080;2023-04-30T22:02:13;102076.88;;;19.70;43.54
76122;BME280;64853;53.200;6.080;2023-04-30T22:07:06;102072.47;;;19.69;43.43
76122;BME280;64853;53.200;6.080;2023-04-30T22:11:57;102068.31;;;19.67;43.76
76122;BME280;64853;53.200;6.080;2023-04-30T22:16:49;102064.97;;;19.64;43.83
76122;BME280;64853;53.200;6.080;2023-04-30T22:21:42;102058.91;;;19.62;43.61
76122;BME280;64853;53.200;6.080;2023-04-30T22:26:33;102042.84;;;19.59;43.35
76122;BME280;64853;53.200;6.080;2023-04-30T22:31:25;102046.94;;;19.57;43.79
76122;BME280;64853;53.200;6.080;2023-04-30T22:36:16;102042.75;;;19.54;43.69
76122;BME280;64853;53.200;6.080;2023-04-30T22:41:09;102039.44;;;19.52;43.24
76122;BME280;64853;53.200;6.080;2023-04-30T22:46:00;102039.72;;;19.51;43.43
76122;BME280;64853;53.200;6.080;2023-04-30T22:50:52;102038.31;;;19.48;43.08
76122;BME280;64853;53.200;6.080;2023-04-30T22:55:44;102034.16;;;19.45;43.28
76122;BME280;64853;53.200;6.080;2023-04-30T23:00:37;102030.84;;;19.43;43.31
76122;BME280;64853;53.200;6.080;2023-04-30T23:05:29;102026.41;;;19.42;43.52
76122;BME280;64853;53.200;6.080;2023-04-30T23:10:20;102026.69;;;19.41;43.68
76122;BME280;64853;53.200;6.080;2023-04-30T23:15:12;102020.88;;;19.37;43.20
76122;BME280;64853;53.200;6.080;2023-04-30T23:20:06;102020.88;;;19.37;43.42
76122;BME280;64853;53.200;6.080;2023-04-30T23:24:58;102014.75;;;19.35;43.62
76122;BME280;64853;53.200;6.080;2023-04-30T23:29:50;102018.06;;;19.32;43.48
76122;BME280;64853;53.200;6.080;2023-04-30T23:34:41;102014.47;;;19.32;43.34
76122;BME280;64853;53.200;6.080;2023-04-30T23:39:34;102017.50;;;19.30;43.40
76122;BME280;64853;53.200;6.080;2023-04-30T23:44:26;102016.94;;;19.28;42.96
76122;BME280;64853;53.200;6.080;2023-04-30T23:49:17;102005.59;;;19.24;43.10
76122;BME280;64853;53.200;6.080;2023-04-30T23:54:13;102003.09;;;19.23;43.01
76122;BME280;64853;53.200;6.080;2023-04-30T23:59:06;101995.91;;;19.22;43.04
